createdAt,value
2023-02-22T00:00:48.102Z,11.25
2023-02-22T00:03:25.082Z,11.77
2023-02-22T00:05:58.618Z,11.48
2023-02-22T00:08:31.141Z,11.93
2023-02-22T00:11:03.004Z,11.38
2023-02-22T00:13:30.213Z,12.15
2023-02-22T00:15:58.182Z,12.00
2023-02-22T00:18:27.791Z,12.77
2023-02-22T00:20:56.058Z,14.13
2023-02-22T00:23:23.124Z,15.98
2023-02-22T00:25:50.429Z,15.85
2023-02-22T00:28:18.759Z,15.63
2023-02-22T00:30:46.063Z,17.10
2023-02-22T00:33:13.678Z,15.25
2023-02-22T00:35:40.328Z,16.45
2023-02-22T00:38:07.194Z,16.45
2023-02-22T00:40:35.075Z,17.05
2023-02-22T00:43:03.835Z,15.52
2023-02-22T00:45:32.039Z,17.52
2023-02-22T00:47:59.026Z,17.15
2023-02-22T00:50:28.225Z,16.20
2023-02-22T00:52:57.468Z,17.35
2023-02-22T00:55:30.164Z,16.05
2023-02-22T00:57:56.844Z,14.32
2023-02-22T01:00:32.156Z,14.13
2023-02-22T01:02:58.684Z,12.20
2023-02-22T01:05:27.593Z,12.55
2023-02-22T01:07:55.879Z,13.43
2023-02-22T01:10:25.170Z,13.20
2023-02-22T01:12:52.347Z,13.57
2023-02-22T01:15:21.735Z,11.50
2023-02-22T01:17:49.993Z,12.23
2023-02-22T01:20:18.444Z,11.93
2023-02-22T01:22:49.010Z,15.48
2023-02-22T01:25:23.944Z,15.05
2023-02-22T01:27:51.758Z,14.77
2023-02-22T01:30:22.886Z,15.85
2023-02-22T01:32:51.235Z,13.30
2023-02-22T01:35:23.751Z,14.90
2023-02-22T01:37:50.487Z,15.25
2023-02-22T01:40:25.222Z,15.80
2023-02-22T01:42:54.144Z,15.77
2023-02-22T01:45:29.869Z,16.08
2023-02-22T01:48:20.093Z,15.73
2023-02-22T01:50:54.627Z,17.80
2023-02-22T01:53:26.869Z,16.92
2023-02-22T01:55:55.117Z,12.27
2023-02-22T01:58:24.182Z,17.55
2023-02-22T02:00:50.899Z,16.00
2023-02-22T02:03:30.552Z,16.95
2023-02-22T02:06:02.827Z,17.75
2023-02-22T02:08:38.996Z,17.23
2023-02-22T02:11:09.204Z,17.08
2023-02-22T02:13:36.532Z,16.83
2023-02-22T02:16:03.113Z,15.95
2023-02-22T02:18:30.020Z,15.93
2023-02-22T02:21:14.976Z,16.48
2023-02-22T02:24:15.789Z,16.67
2023-02-22T02:27:09.073Z,15.93
2023-02-22T02:30:20.328Z,15.32
2023-02-22T02:32:58.737Z,16.77
2023-02-22T02:35:28.000Z,16.75
2023-02-22T02:38:13.346Z,16.85
2023-02-22T02:40:59.106Z,17.35
2023-02-22T02:44:00.865Z,17.00
2023-02-22T02:46:37.671Z,16.23
2023-02-22T02:49:10.966Z,15.75
2023-02-22T02:51:42.861Z,17.60
2023-02-22T02:54:11.452Z,15.80
2023-02-22T02:56:37.867Z,16.35
2023-02-22T02:59:25.143Z,16.33
2023-02-22T03:02:20.032Z,16.60
2023-02-22T03:04:59.835Z,15.32
2023-02-22T03:07:49.797Z,14.93
2023-02-22T03:10:38.664Z,15.00
2023-02-22T03:13:33.501Z,15.73
2023-02-22T03:16:06.338Z,15.90
2023-02-22T03:19:10.977Z,15.45
2023-02-22T03:21:56.964Z,17.02
2023-02-22T03:24:45.779Z,15.27
2023-02-22T03:27:21.352Z,15.90
2023-02-22T03:29:53.843Z,15.18
2023-02-22T03:32:25.275Z,14.98
2023-02-22T03:35:01.147Z,15.05
2023-02-22T03:37:33.994Z,15.25
2023-02-22T03:40:06.117Z,14.80
2023-02-22T03:45:09.857Z,16.50
2023-02-22T03:47:40.873Z,12.75
2023-02-22T03:50:15.147Z,14.68
2023-02-22T03:52:43.960Z,13.90
2023-02-22T03:55:17.590Z,13.20
2023-02-22T03:57:49.309Z,13.40
2023-02-22T04:00:22.461Z,12.05
2023-02-22T04:02:50.479Z,13.18
2023-02-22T04:05:19.820Z,12.32
2023-02-22T04:07:47.267Z,14.25
2023-02-22T04:10:15.629Z,14.63
2023-02-22T04:12:43.101Z,14.10
2023-02-22T04:15:13.592Z,13.10
2023-02-22T04:17:40.042Z,13.52
2023-02-22T04:20:09.117Z,15.43
2023-02-22T04:22:44.898Z,13.13
2023-02-22T04:25:13.645Z,13.93
2023-02-22T04:27:40.061Z,13.18
2023-02-22T04:30:06.831Z,12.98
2023-02-22T04:32:36.181Z,12.13
2023-02-22T04:35:03.588Z,13.25
2023-02-22T04:37:30.950Z,13.55
2023-02-22T04:39:57.486Z,15.40
2023-02-22T04:42:23.884Z,14.32
2023-02-22T04:44:50.280Z,13.95
2023-02-22T04:47:16.664Z,15.65
2023-02-22T04:49:43.491Z,15.18
2023-02-22T04:52:09.860Z,14.45
2023-02-22T04:54:38.096Z,16.48
2023-02-22T04:57:04.534Z,14.65
2023-02-22T04:59:33.195Z,13.90
2023-02-22T05:02:00.938Z,15.23
2023-02-22T05:04:27.385Z,15.75
2023-02-22T05:06:55.057Z,16.33
2023-02-22T05:09:21.759Z,15.05
2023-02-22T05:11:48.125Z,15.35
2023-02-22T05:14:14.691Z,14.70
2023-02-22T05:16:41.337Z,15.02
2023-02-22T05:19:07.753Z,13.55
2023-02-22T05:21:34.128Z,14.60
2023-02-22T05:24:00.657Z,13.95
2023-02-22T05:26:27.129Z,15.35
2023-02-22T05:28:53.908Z,14.88
2023-02-22T05:31:20.615Z,14.05
2023-02-22T05:33:48.486Z,14.93
2023-02-22T05:36:14.916Z,14.77
2023-02-22T05:38:43.309Z,14.38
2023-02-22T05:41:12.987Z,14.00
2023-02-22T05:43:40.543Z,14.10
2023-02-22T05:46:07.256Z,14.40
2023-02-22T05:48:33.755Z,13.60
2023-02-22T05:51:00.240Z,14.95
2023-02-22T05:53:27.608Z,15.45
2023-02-22T05:55:53.996Z,13.00
2023-02-22T05:58:20.452Z,14.65
2023-02-22T06:00:46.897Z,14.00
2023-02-22T06:03:13.644Z,14.95
2023-02-22T06:05:41.166Z,17.35
2023-02-22T06:08:07.979Z,21.80
2023-02-22T06:10:34.641Z,20.63
2023-02-22T06:13:01.777Z,19.52
2023-02-22T06:15:29.406Z,19.60
2023-02-22T06:17:58.557Z,20.65
2023-02-22T06:20:27.845Z,20.88
2023-02-22T06:22:56.533Z,19.58
2023-02-22T06:25:25.645Z,19.70
2023-02-22T06:27:52.705Z,20.65
2023-02-22T06:30:21.828Z,20.58
2023-02-22T06:32:48.372Z,19.98
2023-02-22T06:35:15.620Z,18.95
2023-02-22T06:37:42.348Z,16.05
2023-02-22T06:40:11.150Z,16.55
2023-02-22T06:42:39.067Z,15.88
2023-02-22T06:45:05.584Z,14.38
2023-02-22T06:47:32.005Z,14.32
2023-02-22T06:50:00.590Z,15.07
2023-02-22T06:52:27.154Z,31.52
2023-02-22T06:54:53.514Z,27.65
2023-02-22T06:57:19.955Z,20.33
2023-02-22T06:59:46.369Z,15.65
2023-02-22T07:02:13.767Z,14.85
2023-02-22T07:04:43.259Z,13.88
2023-02-22T07:07:10.553Z,13.13
2023-02-22T07:09:36.934Z,13.90
2023-02-22T07:12:03.915Z,12.40
2023-02-22T07:14:30.296Z,12.77
2023-02-22T07:16:56.659Z,14.88
2023-02-22T07:19:24.558Z,12.55
2023-02-22T07:21:50.966Z,13.60
2023-02-22T07:24:17.363Z,14.65
2023-02-22T07:26:43.804Z,15.18
2023-02-22T07:29:11.189Z,12.75
2023-02-22T07:31:39.678Z,14.45
2023-02-22T07:34:06.553Z,14.32
2023-02-22T07:36:32.989Z,13.23
2023-02-22T07:38:59.420Z,14.00
2023-02-22T07:41:26.036Z,14.90
2023-02-22T07:43:52.461Z,19.48
2023-02-22T07:46:18.846Z,21.20
2023-02-22T07:48:45.206Z,18.95
2023-02-22T07:51:15.698Z,20.70
2023-02-22T07:53:42.309Z,20.38
2023-02-22T07:56:08.722Z,17.75
2023-02-22T07:58:35.285Z,18.30
2023-02-22T08:01:02.063Z,18.20
2023-02-22T08:03:36.374Z,18.83
2023-02-22T08:06:05.072Z,17.83
2023-02-22T08:08:32.716Z,18.92
2023-02-22T08:10:59.213Z,19.90
2023-02-22T08:13:25.727Z,18.23
2023-02-22T08:15:53.735Z,21.33
2023-02-22T08:18:22.708Z,21.02
2023-02-22T08:20:51.744Z,20.25
2023-02-22T08:23:20.233Z,19.35
2023-02-22T08:25:46.663Z,19.52
2023-02-22T08:28:15.642Z,19.50
2023-02-22T08:30:43.687Z,20.17
2023-02-22T08:33:14.087Z,23.08
2023-02-22T08:35:41.403Z,20.65
2023-02-22T08:38:15.098Z,19.55
2023-02-22T08:40:41.450Z,18.25
2023-02-22T08:43:07.883Z,18.88
2023-02-22T08:45:34.587Z,18.85
2023-02-22T08:48:01.068Z,18.95
2023-02-22T08:50:30.876Z,19.65
2023-02-22T08:52:59.356Z,20.50
2023-02-22T08:55:28.239Z,22.52
2023-02-22T08:57:54.625Z,21.10
2023-02-22T09:00:25.148Z,20.77
2023-02-22T09:02:54.444Z,19.67
2023-02-22T09:05:21.788Z,22.67
2023-02-22T09:07:48.193Z,21.40
2023-02-22T09:10:17.279Z,20.23
2023-02-22T09:12:43.774Z,23.00
2023-02-22T09:15:11.695Z,23.13
2023-02-22T09:17:38.227Z,21.52
2023-02-22T09:20:06.811Z,22.45
2023-02-22T09:22:33.241Z,25.48
2023-02-22T09:25:02.546Z,23.83
2023-02-22T09:27:34.292Z,25.08
2023-02-22T09:30:00.755Z,21.90
2023-02-22T09:32:28.066Z,22.10
2023-02-22T09:34:55.626Z,21.73
2023-02-22T09:37:22.221Z,25.10
2023-02-22T09:39:48.889Z,20.00
2023-02-22T09:42:30.747Z,24.50
2023-02-22T09:45:13.950Z,25.80
2023-02-22T09:50:16.401Z,25.30
2023-02-22T09:52:56.339Z,24.23
2023-02-22T09:55:34.080Z,23.85
2023-02-22T09:58:03.863Z,23.70
2023-02-22T10:00:36.418Z,24.05
2023-02-22T10:03:21.811Z,24.38
2023-02-22T10:06:06.873Z,25.10
2023-02-22T10:08:34.442Z,26.20
2023-02-22T10:11:15.918Z,28.48
2023-02-22T10:14:01.331Z,27.00
2023-02-22T10:16:42.969Z,25.20
2023-02-22T10:19:34.323Z,29.42
2023-02-22T10:22:28.561Z,27.38
2023-02-22T10:25:05.183Z,28.50
2023-02-22T10:27:42.451Z,27.85
2023-02-22T10:30:33.357Z,27.85
2023-02-22T10:33:15.062Z,26.67
2023-02-22T10:35:42.472Z,28.10
2023-02-22T10:38:24.233Z,29.15
2023-02-22T10:40:56.878Z,29.77
2023-02-22T10:43:24.089Z,27.85
2023-02-22T10:45:56.156Z,25.27
2023-02-22T10:48:26.258Z,19.40
2023-02-22T10:50:57.127Z,28.52
2023-02-22T10:53:23.548Z,26.48
2023-02-22T10:56:14.354Z,28.25
2023-02-22T10:58:51.874Z,28.25
2023-02-22T11:01:27.485Z,24.73
2023-02-22T11:04:10.299Z,25.02
2023-02-22T11:06:37.693Z,28.05
2023-02-22T11:09:10.667Z,28.85
2023-02-22T11:14:06.765Z,25.98
2023-02-22T11:16:38.115Z,26.63
2023-02-22T11:19:25.709Z,23.85
2023-02-22T11:22:01.104Z,24.55
2023-02-22T11:24:37.316Z,24.25
2023-02-22T11:27:24.111Z,25.50
2023-02-22T11:29:51.716Z,24.45
2023-02-22T11:32:22.314Z,25.40
2023-02-22T11:35:00.207Z,24.95
2023-02-22T11:37:38.732Z,23.98
2023-02-22T11:40:17.622Z,22.98
2023-02-22T11:42:44.026Z,24.00
2023-02-22T11:45:20.625Z,22.00
2023-02-22T11:47:52.467Z,25.05
2023-02-22T11:50:42.075Z,22.02
2023-02-22T11:53:41.366Z,23.88
2023-02-22T11:56:20.589Z,23.77
2023-02-22T11:58:53.978Z,20.50
2023-02-22T12:01:47.123Z,21.83
2023-02-22T12:04:45.825Z,21.05
2023-02-22T12:07:45.411Z,22.02
2023-02-22T12:10:26.532Z,23.73
2023-02-22T12:13:26.415Z,24.35
2023-02-22T12:16:14.914Z,25.13
2023-02-22T12:19:21.952Z,24.10
2023-02-22T12:22:12.946Z,24.08
2023-02-22T12:25:09.354Z,23.83
2023-02-22T12:27:43.674Z,25.33
2023-02-22T12:30:14.594Z,24.45
2023-02-22T12:32:47.483Z,25.50
2023-02-22T12:35:16.880Z,27.23
2023-02-22T12:37:56.525Z,24.40
2023-02-22T12:40:25.854Z,24.80
2023-02-22T12:42:55.326Z,23.95
2023-02-22T12:45:31.696Z,24.23
2023-02-22T12:48:27.030Z,24.20
2023-02-22T12:50:58.613Z,26.50
2023-02-22T12:53:35.333Z,26.48
2023-02-22T12:56:16.772Z,24.58
2023-02-22T12:58:53.036Z,26.80
2023-02-22T13:01:27.470Z,25.67
2023-02-22T13:03:55.669Z,25.67
2023-02-22T13:06:41.391Z,26.00
2023-02-22T13:09:13.891Z,25.60
2023-02-22T13:11:59.647Z,18.48
2023-02-22T13:14:45.292Z,24.42
2023-02-22T13:17:26.761Z,24.38
2023-02-22T13:20:19.744Z,23.42
2023-02-22T13:23:25.188Z,26.13
2023-02-22T13:25:58.753Z,24.48
2023-02-22T13:28:45.253Z,23.48
2023-02-22T13:31:23.989Z,23.90
2023-02-22T13:34:13.068Z,26.33
2023-02-22T13:37:23.753Z,24.77
2023-02-22T13:40:24.287Z,23.70
2023-02-22T13:43:21.118Z,21.10
2023-02-22T13:46:25.216Z,22.23
2023-02-22T13:48:57.553Z,23.95
2023-02-22T13:51:33.044Z,23.30
2023-02-22T13:54:23.613Z,22.25
2023-02-22T13:56:53.449Z,22.15
2023-02-22T13:59:36.038Z,22.30
2023-02-22T14:02:05.014Z,22.17
2023-02-22T14:04:36.942Z,20.98
2023-02-22T14:07:18.472Z,23.42
2023-02-22T14:09:51.059Z,21.52
2023-02-22T14:12:29.813Z,24.05
2023-02-22T14:15:28.294Z,22.48
2023-02-22T14:18:05.525Z,23.13
2023-02-22T14:20:37.284Z,23.30
2023-02-22T14:23:40.222Z,19.42
2023-02-22T14:26:34.056Z,20.75
2023-02-22T14:29:09.599Z,22.05
2023-02-22T14:31:46.364Z,21.08
2023-02-22T14:34:43.720Z,23.02
2023-02-22T14:37:24.822Z,22.13
2023-02-22T14:39:57.529Z,22.13
2023-02-22T14:42:27.021Z,20.98
2023-02-22T14:45:00.385Z,31.90
2023-02-22T14:47:43.943Z,25.75
2023-02-22T14:50:23.097Z,22.13
2023-02-22T14:53:12.681Z,21.70
2023-02-22T14:55:48.426Z,24.50
2023-02-22T14:58:22.449Z,25.65
2023-02-22T15:00:52.780Z,25.42
2023-02-22T15:03:21.941Z,26.33
2023-02-22T15:05:52.372Z,24.65
2023-02-22T15:08:27.889Z,24.17
2023-02-22T15:10:54.649Z,26.05
2023-02-22T15:13:24.759Z,25.60
2023-02-22T15:16:00.395Z,24.27
2023-02-22T15:18:34.660Z,26.55
2023-02-22T15:21:15.458Z,23.73
2023-02-22T15:23:49.862Z,23.55
2023-02-22T15:26:27.560Z,24.52
2023-02-22T15:28:58.876Z,25.98
2023-02-22T15:31:37.781Z,24.63
2023-02-22T15:34:31.365Z,24.27
2023-02-22T15:37:14.257Z,21.77
2023-02-22T15:39:43.740Z,23.55
2023-02-22T15:42:19.287Z,21.98
2023-02-22T15:44:47.807Z,23.15
2023-02-22T15:47:22.009Z,20.58
2023-02-22T15:50:23.194Z,21.92
2023-02-22T15:53:07.819Z,19.65
2023-02-22T15:55:41.086Z,22.65
2023-02-22T15:58:31.090Z,22.17
2023-02-22T16:01:04.007Z,22.33
2023-02-22T16:03:51.786Z,22.90
2023-02-22T16:06:30.060Z,23.23
2023-02-22T16:09:00.161Z,23.42
2023-02-22T16:11:39.700Z,22.20
2023-02-22T16:14:24.198Z,21.70
2023-02-22T16:16:51.198Z,21.10
2023-02-22T16:19:17.578Z,19.85
2023-02-22T16:21:53.452Z,20.27
2023-02-22T16:24:32.496Z,20.55
2023-02-22T16:27:19.875Z,22.52
2023-02-22T16:30:23.246Z,21.48
2023-02-22T16:32:51.542Z,22.15
2023-02-22T16:35:18.077Z,22.70
2023-02-22T16:37:52.215Z,22.02
2023-02-22T16:40:22.329Z,19.70
2023-02-22T16:42:48.917Z,20.92
2023-02-22T16:45:16.575Z,21.05
2023-02-22T16:47:43.213Z,22.83
2023-02-22T16:50:09.633Z,21.23
2023-02-22T16:52:39.326Z,24.55
2023-02-22T16:55:10.360Z,23.02
2023-02-22T16:57:38.211Z,22.90
2023-02-22T17:00:12.794Z,20.55
2023-02-22T17:02:39.883Z,21.63
2023-02-22T17:05:07.739Z,23.60
2023-02-22T17:07:34.273Z,27.45
2023-02-22T17:10:00.621Z,28.52
2023-02-22T17:12:29.057Z,26.35
2023-02-22T17:14:55.850Z,30.88
2023-02-22T17:17:22.658Z,27.08
2023-02-22T17:19:49.261Z,28.15
2023-02-22T17:22:21.078Z,26.00
2023-02-22T17:24:47.842Z,26.45
2023-02-22T17:27:14.471Z,31.02
2023-02-22T17:29:44.938Z,29.67
2023-02-22T17:32:12.302Z,30.80
2023-02-22T17:34:38.681Z,34.30
2023-02-22T17:37:05.100Z,32.10
2023-02-22T17:39:31.474Z,33.95
2023-02-22T17:41:59.276Z,29.42
2023-02-22T17:44:26.273Z,27.52
2023-02-22T17:46:53.371Z,29.10
2023-02-22T17:49:19.774Z,30.58
2023-02-22T17:51:49.441Z,29.27
2023-02-22T17:54:17.634Z,28.63
2023-02-22T17:56:44.279Z,29.55
2023-02-22T17:59:11.011Z,27.83
2023-02-22T18:01:37.866Z,24.90
2023-02-22T18:04:05.188Z,27.45
2023-02-22T18:06:32.653Z,28.27
2023-02-22T18:09:00.332Z,27.88
2023-02-22T18:11:28.636Z,29.17
2023-02-22T18:13:56.406Z,27.75
2023-02-22T18:16:25.457Z,26.58
2023-02-22T18:18:52.571Z,24.85
2023-02-22T18:21:18.916Z,25.20
2023-02-22T18:23:45.379Z,26.10
2023-02-22T18:26:17.115Z,24.88
2023-02-22T18:28:44.201Z,26.33
2023-02-22T18:31:15.639Z,27.13
2023-02-22T18:33:46.386Z,26.42
2023-02-22T18:36:14.036Z,22.73
2023-02-22T18:38:42.999Z,23.60
2023-02-22T18:41:16.025Z,22.35
2023-02-22T18:43:43.130Z,18.10
2023-02-22T18:46:12.334Z,22.40
2023-02-22T18:48:39.352Z,22.85
2023-02-22T18:51:09.728Z,20.77
2023-02-22T18:53:37.048Z,19.58
2023-02-22T18:56:14.994Z,21.95
2023-02-22T18:58:45.390Z,22.42
2023-02-22T19:01:17.782Z,22.02
2023-02-22T19:03:47.071Z,21.75
2023-02-22T19:06:14.966Z,22.85
2023-02-22T19:08:42.865Z,22.23
2023-02-22T19:11:17.771Z,22.90
2023-02-22T19:13:46.352Z,23.73
2023-02-22T19:16:15.304Z,24.20
2023-02-22T19:18:45.143Z,22.48
2023-02-22T19:21:13.812Z,22.67
2023-02-22T19:23:45.461Z,26.98
2023-02-22T19:26:23.763Z,23.17
2023-02-22T19:28:52.268Z,22.10
2023-02-22T19:31:28.059Z,22.65
2023-02-22T19:33:55.069Z,21.08
2023-02-22T19:36:22.979Z,20.90
2023-02-22T19:38:49.475Z,21.20
2023-02-22T19:41:19.541Z,22.92
2023-02-22T19:43:48.415Z,23.33
2023-02-22T19:46:17.655Z,24.45
2023-02-22T19:48:44.950Z,22.77
2023-02-22T19:51:14.319Z,22.25
2023-02-22T19:53:42.424Z,24.00
2023-02-22T19:56:12.045Z,24.50
2023-02-22T19:58:40.251Z,23.10
2023-02-22T20:01:36.589Z,20.98
2023-02-22T20:04:21.154Z,20.10
2023-02-22T20:06:50.482Z,22.98
2023-02-22T20:09:23.851Z,20.13
2023-02-22T20:14:23.921Z,19.95
2023-02-22T20:16:51.837Z,22.52
2023-02-22T20:19:18.392Z,21.90
2023-02-22T20:21:45.104Z,21.80
2023-02-22T20:24:14.947Z,22.17
2023-02-22T20:26:42.340Z,20.75
2023-02-22T20:29:09.844Z,21.08
2023-02-22T20:31:38.242Z,21.83
2023-02-22T20:34:06.114Z,21.98
2023-02-22T20:36:36.735Z,22.20
2023-02-22T20:39:15.102Z,22.63
2023-02-22T20:41:43.424Z,24.27
2023-02-22T20:44:13.404Z,21.50
2023-02-22T20:46:39.908Z,21.65
2023-02-22T20:49:08.277Z,22.20
2023-02-22T20:51:35.301Z,25.08
2023-02-22T20:54:02.045Z,24.88
2023-02-22T20:56:30.565Z,21.92
2023-02-22T20:59:00.600Z,21.45
2023-02-22T21:01:27.642Z,25.10
2023-02-22T21:03:54.238Z,28.08
2023-02-22T21:06:22.214Z,28.50
2023-02-22T21:08:54.749Z,26.73
2023-02-22T21:11:22.797Z,25.20
2023-02-22T21:13:50.496Z,25.75
2023-02-22T21:16:23.113Z,24.90
2023-02-22T21:18:51.749Z,24.98
2023-02-22T21:21:19.145Z,25.15
2023-02-22T21:23:52.262Z,24.17
2023-02-22T21:26:29.476Z,25.27
2023-02-22T21:28:59.540Z,24.58
2023-02-22T21:31:27.619Z,26.60
2023-02-22T21:33:56.481Z,28.23
2023-02-22T21:36:25.159Z,27.08
2023-02-22T21:38:57.244Z,23.95
2023-02-22T21:41:27.709Z,28.15
2023-02-22T21:43:56.274Z,26.02
2023-02-22T21:46:23.450Z,26.17
2023-02-22T21:48:51.256Z,29.55
2023-02-22T21:51:25.890Z,29.48
2023-02-22T21:53:55.121Z,29.63
2023-02-22T21:56:27.119Z,30.92
2023-02-22T21:59:05.911Z,31.77
2023-02-22T22:01:36.204Z,31.80
2023-02-22T22:04:04.490Z,29.38
2023-02-22T22:06:32.971Z,30.10
2023-02-22T22:09:14.765Z,29.52
2023-02-22T22:11:41.169Z,27.58
2023-02-22T22:14:07.535Z,27.85
2023-02-22T22:16:33.921Z,28.67
2023-02-22T22:19:00.272Z,26.63
2023-02-22T22:21:27.390Z,26.63
2023-02-22T22:23:56.335Z,26.40
2023-02-22T22:26:30.716Z,26.98
2023-02-22T22:28:58.741Z,26.95
2023-02-22T22:31:27.085Z,27.88
2023-02-22T22:33:56.159Z,27.92
2023-02-22T22:36:24.259Z,27.23
2023-02-22T22:38:52.523Z,25.85
2023-02-22T22:41:22.256Z,26.48
2023-02-22T22:43:52.384Z,25.88
2023-02-22T22:46:20.389Z,29.17
2023-02-22T22:48:47.450Z,29.13
2023-02-22T22:51:20.513Z,28.42
2023-02-22T22:53:50.294Z,28.05
2023-02-22T22:56:20.013Z,28.55
2023-02-22T22:58:47.985Z,27.90
2023-02-22T23:01:26.558Z,30.02
2023-02-22T23:04:01.702Z,28.85
2023-02-22T23:06:30.754Z,27.40
2023-02-22T23:09:13.858Z,27.90
2023-02-22T23:11:45.784Z,29.08
2023-02-22T23:14:14.867Z,27.52
2023-02-22T23:16:43.045Z,26.48
2023-02-22T23:19:09.767Z,25.10
2023-02-22T23:21:37.011Z,25.85
2023-02-22T23:24:06.312Z,26.33
2023-02-22T23:26:33.447Z,27.17
2023-02-22T23:29:00.454Z,26.40
2023-02-22T23:31:32.025Z,27.92
2023-02-22T23:33:59.392Z,26.20
2023-02-22T23:36:27.449Z,27.35
2023-02-22T23:38:54.087Z,28.38
2023-02-22T23:41:20.751Z,27.30
2023-02-22T23:43:47.635Z,27.42
2023-02-22T23:46:18.538Z,26.88
2023-02-22T23:48:51.632Z,27.27
2023-02-22T23:51:25.686Z,28.80
2023-02-22T23:53:57.187Z,28.15
2023-02-22T23:56:27.168Z,27.25
2023-02-22T23:58:56.989Z,25.17
